Time;durP1;ratioP1;P1;durP2;ratioP2;P2;SDS_P1;SDS_P2;PMS_P1;PMS_P2;Temp;Humidity;BMP_temperature;BMP_pressure;BME280_temperature;BME280_humidity;BME280_pressure;Samples;Min_cycle;Max_cycle;Signal;HPM_P1;HPM_P2
2022/08/16 00:01:39;;;;;;;;;;;20.00;99.90;;;;;;5027491;28;19933;-68
2022/08/16 00:04:06;;;;;;;;;;;20.00;99.90;;;;;;5031412;28;19929;-69
2022/08/16 00:06:32;;;;;;;;;;;20.00;99.90;;;;;;5035386;28;19933;-69
2022/08/16 00:08:59;;;;;;;;;;;20.00;99.90;;;;;;5028992;28;19928;-68
2022/08/16 00:11:26;;;;;;;;;;;19.90;99.90;;;;;;5035562;28;20335;-68
2022/08/16 00:13:53;;;;;;;;;;;19.90;99.90;;;;;;5033255;28;19932;-69
2022/08/16 00:16:21;;;;;;;;;;;19.90;99.90;;;;;;5029367;28;19929;-69
2022/08/16 00:18:48;;;;;;;;;;;19.90;99.90;;;;;;5023140;28;19929;-69
2022/08/16 00:21:14;;;;;;;;;;;19.90;99.90;;;;;;5022827;28;20024;-68
2022/08/16 00:23:41;;;;;;;;;;;19.90;99.90;;;;;;5023496;28;19925;-69
2022/08/16 00:26:08;;;;;;;;;;;19.80;99.90;;;;;;5030774;28;19936;-69
2022/08/16 00:28:35;;;;;;;;;;;19.80;99.90;;;;;;5029886;28;20469;-68
2022/08/16 00:31:02;;;;;;;;;;;19.80;99.90;;;;;;5026494;28;19925;-69
2022/08/16 00:33:30;;;;;;;;;;;19.80;99.90;;;;;;5032063;28;19979;-69
2022/08/16 00:35:57;;;;;;;;;;;19.70;99.90;;;;;;5022650;28;19925;-69
2022/08/16 00:38:24;;;;;;;;;;;19.70;99.90;;;;;;5046919;28;20294;-68
2022/08/16 00:40:52;;;;;;;;;;;19.70;99.90;;;;;;5025836;28;19929;-69
2022/08/16 00:43:21;;;;;;;;;;;19.70;99.90;;;;;;5033457;28;19932;-69
2022/08/16 00:45:52;;;;;;;;;;;19.60;99.90;;;;;;5058384;28;19925;-69
2022/08/16 00:48:19;;;;;;;;;;;19.60;99.90;;;;;;5024001;28;19933;-69
2022/08/16 00:50:48;;;;;;;;;;;19.60;99.90;;;;;;5029361;28;19931;-69
2022/08/16 00:53:15;;;;;;;;;;;19.60;99.90;;;;;;5031658;28;19925;-68
2022/08/16 00:55:44;;;;;;;;;;;19.60;99.90;;;;;;5030734;28;19925;-68
2022/08/16 00:58:11;;;;;;;;;;;19.60;99.90;;;;;;5030181;28;19955;-69
2022/08/16 01:00:38;;;;;;;;;;;19.50;99.90;;;;;;5025900;28;19932;-69
2022/08/16 01:03:06;;;;;;;;;;;19.50;99.90;;;;;;5030092;28;19975;-68
2022/08/16 01:05:34;;;;;;;;;;;19.50;99.90;;;;;;5030683;28;19932;-68
2022/08/16 01:08:02;;;;;;;;;;;19.40;99.90;;;;;;5025526;28;19925;-69
2022/08/16 01:10:31;;;;;;;;;;;19.40;99.90;;;;;;5030399;28;19948;-69
2022/08/16 01:12:58;;;;;;;;;;;19.40;99.90;;;;;;5027029;28;19932;-69
2022/08/16 01:15:25;;;;;;;;;;;19.40;99.90;;;;;;5032679;28;19925;-69
2022/08/16 01:17:53;;;;;;;;;;;19.30;99.90;;;;;;5028466;28;19925;-69
2022/08/16 01:20:20;;;;;;;;;;;19.30;99.90;;;;;;5033543;28;19932;-69
2022/08/16 01:22:52;;;;;;;;;;;19.30;99.90;;;;;;5029753;28;19965;-69
2022/08/16 01:25:23;;;;;;;;;;;19.30;99.90;;;;;;5030031;28;19929;-68
2022/08/16 01:27:52;;;;;;;;;;;19.30;99.90;;;;;;5063973;28;19948;-69
2022/08/16 01:30:20;;;;;;;;;;;19.20;99.90;;;;;;5032474;28;19928;-69
2022/08/16 01:32:47;;;;;;;;;;;19.20;99.90;;;;;;5034248;28;19963;-68
2022/08/16 01:35:17;;;;;;;;;;;19.20;99.90;;;;;;5027378;28;19925;-68
2022/08/16 01:37:47;;;;;;;;;;;19.20;99.90;;;;;;5021858;28;19932;-69
2022/08/16 01:40:15;;;;;;;;;;;19.10;99.90;;;;;;5024990;28;19979;-68
2022/08/16 01:42:44;;;;;;;;;;;19.10;99.90;;;;;;5033041;28;19924;-68
2022/08/16 01:45:10;;;;;;;;;;;19.00;99.90;;;;;;5027486;28;19964;-68
2022/08/16 01:47:39;;;;;;;;;;;19.00;99.90;;;;;;5032663;28;19964;-69
2022/08/16 01:50:07;;;;;;;;;;;19.00;99.90;;;;;;5038036;28;20470;-69
2022/08/16 01:52:34;;;;;;;;;;;19.00;99.90;;;;;;5055331;28;19940;-68
2022/08/16 01:55:04;;;;;;;;;;;18.90;99.90;;;;;;5037952;28;19925;-68
2022/08/16 01:57:30;;;;;;;;;;;18.90;99.90;;;;;;5023477;28;19952;-69
2022/08/16 01:59:59;;;;;;;;;;;18.90;99.90;;;;;;5037459;28;19925;-69
2022/08/16 02:02:26;;;;;;;;;;;18.90;99.90;;;;;;5029708;28;19925;-68
2022/08/16 02:04:53;;;;;;;;;;;18.90;99.90;;;;;;5024320;28;19991;-69
2022/08/16 02:07:20;;;;;;;;;;;18.90;99.90;;;;;;5057270;28;19933;-68
2022/08/16 02:09:47;;;;;;;;;;;18.90;99.90;;;;;;5062862;28;19947;-68
2022/08/16 02:12:15;;;;;;;;;;;19.00;99.90;;;;;;5033647;28;19932;-69
2022/08/16 02:14:41;;;;;;;;;;;19.00;99.90;;;;;;5031647;28;20403;-68
2022/08/16 02:17:11;;;;;;;;;;;18.90;99.90;;;;;;5029164;28;19925;-69
2022/08/16 02:19:40;;;;;;;;;;;18.90;99.90;;;;;;5057700;28;20004;-68
2022/08/16 02:22:08;;;;;;;;;;;18.90;99.90;;;;;;5030412;28;20009;-69
2022/08/16 02:24:36;;;;;;;;;;;18.80;99.90;;;;;;5035802;28;20028;-68
2022/08/16 02:27:03;;;;;;;;;;;18.80;99.90;;;;;;5064632;28;19932;-68
2022/08/16 02:29:30;;;;;;;;;;;18.80;99.90;;;;;;5040468;28;19935;-68
2022/08/16 02:31:57;;;;;;;;;;;18.80;99.90;;;;;;5027432;28;19940;-68
2022/08/16 02:34:25;;;;;;;;;;;18.80;99.90;;;;;;5035201;28;19925;-68
2022/08/16 02:36:52;;;;;;;;;;;18.80;99.90;;;;;;5024778;28;19952;-69
2022/08/16 02:39:21;;;;;;;;;;;18.80;99.90;;;;;;5033989;28;19925;-69
2022/08/16 02:41:49;;;;;;;;;;;18.80;99.90;;;;;;5028969;28;19939;-68
2022/08/16 02:44:16;;;;;;;;;;;18.90;99.90;;;;;;5059280;28;20015;-69
2022/08/16 02:46:46;;;;;;;;;;;18.90;99.90;;;;;;5029605;28;20370;-68
2022/08/16 02:49:13;;;;;;;;;;;18.90;99.90;;;;;;5033846;28;19932;-68
2022/08/16 02:51:42;;;;;;;;;;;18.80;99.90;;;;;;5047886;28;20015;-68
2022/08/16 02:54:12;;;;;;;;;;;18.80;99.90;;;;;;5056407;28;19924;-68
2022/08/16 02:56:39;;;;;;;;;;;18.80;99.90;;;;;;5033602;28;19936;-68
2022/08/16 02:59:06;;;;;;;;;;;18.80;99.90;;;;;;5034993;28;19924;-69
2022/08/16 03:01:34;;;;;;;;;;;18.80;99.90;;;;;;5037611;28;19925;-69
2022/08/16 03:04:06;;;;;;;;;;;18.70;99.90;;;;;;5031730;28;19972;-68
2022/08/16 03:06:34;;;;;;;;;;;18.60;99.90;;;;;;5034952;28;20304;-68
2022/08/16 03:09:08;;;;;;;;;;;18.60;99.90;;;;;;5033424;28;20036;-69
2022/08/16 03:11:39;;;;;;;;;;;18.50;99.90;;;;;;5036005;28;19971;-69
2022/08/16 03:14:06;;;;;;;;;;;18.50;99.90;;;;;;5033339;28;20441;-68
2022/08/16 03:16:33;;;;;;;;;;;18.50;99.90;;;;;;5027331;28;19935;-68
2022/08/16 03:19:00;;;;;;;;;;;18.40;99.90;;;;;;5028062;28;19948;-68
2022/08/16 03:21:27;;;;;;;;;;;18.40;99.90;;;;;;5034446;28;20384;-68
2022/08/16 03:23:54;;;;;;;;;;;18.30;99.90;;;;;;5061213;28;19957;-68
2022/08/16 03:26:23;;;;;;;;;;;18.30;99.90;;;;;;5027413;28;19998;-68
2022/08/16 03:28:50;;;;;;;;;;;18.30;99.90;;;;;;5035681;28;19925;-67
2022/08/16 03:31:17;;;;;;;;;;;18.30;99.90;;;;;;5029338;28;19925;-68
2022/08/16 03:33:44;;;;;;;;;;;18.30;99.90;;;;;;5035602;28;19935;-68
2022/08/16 03:36:11;;;;;;;;;;;18.20;99.90;;;;;;5056788;28;19935;-68
2022/08/16 03:38:41;;;;;;;;;;;18.20;99.90;;;;;;5030335;28;19945;-69
2022/08/16 03:41:14;;;;;;;;;;;18.20;99.90;;;;;;5028020;28;19948;-67
2022/08/16 03:43:42;;;;;;;;;;;18.20;99.90;;;;;;5032525;28;19925;-68
2022/08/16 03:46:14;;;;;;;;;;;18.20;99.90;;;;;;5029643;28;20027;-69
2022/08/16 03:48:42;;;;;;;;;;;18.20;99.90;;;;;;5025223;28;19929;-68
2022/08/16 03:51:15;;;;;;;;;;;18.20;99.90;;;;;;5033109;28;19925;-69
2022/08/16 03:53:48;;;;;;;;;;;18.20;99.90;;;;;;5036626;28;20339;-68
2022/08/16 03:56:15;;;;;;;;;;;18.20;99.90;;;;;;5028974;28;19925;-68
2022/08/16 03:58:43;;;;;;;;;;;18.20;99.90;;;;;;5035221;28;19928;-68
2022/08/16 04:01:11;;;;;;;;;;;18.10;99.90;;;;;;5027789;28;19983;-69
2022/08/16 04:03:38;;;;;;;;;;;18.00;99.90;;;;;;5027483;28;19925;-68
2022/08/16 04:06:06;;;;;;;;;;;18.00;99.90;;;;;;5030585;28;19925;-69
2022/08/16 04:08:33;;;;;;;;;;;17.90;99.90;;;;;;5031228;28;19929;-68
2022/08/16 04:11:02;;;;;;;;;;;17.90;99.90;;;;;;5034422;28;20395;-68
2022/08/16 04:13:30;;;;;;;;;;;17.80;99.90;;;;;;5035238;28;20016;-68
2022/08/16 04:16:01;;;;;;;;;;;17.80;99.90;;;;;;5027067;28;19925;-68
2022/08/16 04:18:29;;;;;;;;;;;17.80;99.90;;;;;;5028765;28;19931;-69
2022/08/16 04:20:57;;;;;;;;;;;17.80;99.90;;;;;;5062076;28;19925;-68
2022/08/16 04:23:27;;;;;;;;;;;17.80;99.90;;;;;;5025152;28;19925;-68
2022/08/16 04:25:55;;;;;;;;;;;17.90;99.90;;;;;;5060259;28;19932;-68
2022/08/16 04:28:22;;;;;;;;;;;17.90;99.90;;;;;;5033888;28;19924;-68
2022/08/16 04:30:49;;;;;;;;;;;18.00;99.90;;;;;;5023338;28;20439;-68
2022/08/16 04:33:17;;;;;;;;;;;18.00;99.90;;;;;;5024440;28;19932;-68
2022/08/16 04:35:45;;;;;;;;;;;18.00;99.90;;;;;;5030834;28;19929;-68
2022/08/16 04:38:12;;;;;;;;;;;18.00;99.90;;;;;;5029199;28;19941;-69
2022/08/16 04:40:43;;;;;;;;;;;18.00;99.90;;;;;;5023487;28;19935;-68
2022/08/16 04:43:10;;;;;;;;;;;18.00;99.90;;;;;;5036782;28;19928;-69
2022/08/16 04:45:38;;;;;;;;;;;18.00;99.90;;;;;;5027322;28;19925;-69
2022/08/16 04:48:10;;;;;;;;;;;18.00;99.90;;;;;;5031338;28;19948;-69
2022/08/16 04:50:48;;;;;;;;;;;18.00;99.90;;;;;;5040832;28;20028;-68
2022/08/16 04:53:17;;;;;;;;;;;18.10;99.90;;;;;;5031292;28;19931;-68
2022/08/16 04:55:46;;;;;;;;;;;18.10;99.90;;;;;;5029978;28;19932;-68
2022/08/16 04:58:15;;;;;;;;;;;18.20;99.90;;;;;;5031319;28;20515;-68
2022/08/16 05:00:41;;;;;;;;;;;18.30;99.90;;;;;;5018424;28;19972;-68
2022/08/16 05:03:15;;;;;;;;;;;18.40;99.90;;;;;;5030543;28;19932;-68
2022/08/16 05:05:47;;;;;;;;;;;18.40;99.90;;;;;;5033034;28;20296;-68
2022/08/16 05:08:18;;;;;;;;;;;18.40;99.90;;;;;;5021334;28;19925;-68
2022/08/16 05:10:50;;;;;;;;;;;18.40;99.90;;;;;;5022681;28;19925;-67
2022/08/16 05:13:17;;;;;;;;;;;18.50;99.90;;;;;;5028133;28;19925;-68
2022/08/16 05:15:46;;;;;;;;;;;18.50;99.90;;;;;;5029669;28;20019;-68
2022/08/16 05:18:14;;;;;;;;;;;18.60;99.90;;;;;;5049268;28;20016;-68
2022/08/16 05:20:49;;;;;;;;;;;18.70;99.90;;;;;;5045911;28;19925;-68
2022/08/16 05:23:17;;;;;;;;;;;18.80;99.90;;;;;;5030114;28;19931;-68
2022/08/16 05:25:44;;;;;;;;;;;18.90;99.90;;;;;;5025000;28;19931;-68
2022/08/16 05:28:11;;;;;;;;;;;18.90;99.90;;;;;;5029766;28;19924;-67
2022/08/16 05:30:41;;;;;;;;;;;19.00;99.90;;;;;;5032248;28;20173;-67
2022/08/16 05:33:14;;;;;;;;;;;19.10;99.90;;;;;;5025882;28;19924;-68
2022/08/16 05:35:43;;;;;;;;;;;19.10;99.90;;;;;;5024822;28;19932;-67
2022/08/16 05:38:14;;;;;;;;;;;19.20;99.90;;;;;;5022047;28;19933;-67
2022/08/16 05:40:41;;;;;;;;;;;19.30;99.90;;;;;;5052648;28;19925;-67
2022/08/16 05:43:08;;;;;;;;;;;19.40;99.90;;;;;;5025500;28;20545;-67
2022/08/16 05:45:36;;;;;;;;;;;19.40;99.90;;;;;;5057634;28;19967;-67
2022/08/16 05:48:04;;;;;;;;;;;19.50;99.90;;;;;;5026852;28;20312;-67
2022/08/16 05:50:54;;;;;;;;;;;19.60;99.90;;;;;;5042912;28;19931;-69
2022/08/16 05:53:23;;;;;;;;;;;19.60;99.90;;;;;;5025511;28;19974;-67
2022/08/16 05:56:04;;;;;;;;;;;19.70;99.90;;;;;;5045427;28;19925;-68
2022/08/16 05:58:34;;;;;;;;;;;19.80;99.90;;;;;;5030884;28;19924;-68
2022/08/16 06:01:02;;;;;;;;;;;19.80;99.90;;;;;;5029663;28;19928;-67
2022/08/16 06:03:29;;;;;;;;;;;19.90;99.90;;;;;;5024502;28;19929;-67
2022/08/16 06:05:59;;;;;;;;;;;20.00;99.90;;;;;;5031422;28;19955;-68
2022/08/16 06:08:27;;;;;;;;;;;20.00;99.90;;;;;;5025333;28;19933;-67
2022/08/16 06:10:54;;;;;;;;;;;20.10;99.90;;;;;;5028821;28;20332;-68
2022/08/16 06:13:22;;;;;;;;;;;20.20;99.90;;;;;;5022855;28;19925;-68
2022/08/16 06:15:50;;;;;;;;;;;20.30;99.90;;;;;;5022790;28;19936;-67
2022/08/16 06:18:19;;;;;;;;;;;20.40;99.90;;;;;;5028848;28;20308;-69
2022/08/16 06:20:47;;;;;;;;;;;20.50;99.90;;;;;;5052353;28;19925;-67
2022/08/16 06:23:19;;;;;;;;;;;20.60;99.90;;;;;;5026361;28;20444;-67
2022/08/16 06:25:57;;;;;;;;;;;20.60;99.90;;;;;;5022062;28;19925;-68
2022/08/16 06:28:28;;;;;;;;;;;20.70;99.90;;;;;;5022537;28;19929;-68
2022/08/16 06:30:55;;;;;;;;;;;20.80;99.90;;;;;;5023371;28;19925;-68
2022/08/16 06:33:21;;;;;;;;;;;20.80;99.90;;;;;;5025250;28;20019;-68
2022/08/16 06:35:49;;;;;;;;;;;20.80;99.90;;;;;;5035005;28;19929;-68
2022/08/16 06:38:16;;;;;;;;;;;21.00;99.90;;;;;;5031194;28;19925;-67
2022/08/16 06:40:43;;;;;;;;;;;21.00;99.90;;;;;;5035688;28;20394;-67
2022/08/16 06:43:12;;;;;;;;;;;21.00;99.90;;;;;;5023950;28;19932;-68
2022/08/16 06:45:41;;;;;;;;;;;21.10;99.90;;;;;;5021215;28;20389;-68
2022/08/16 06:48:16;;;;;;;;;;;21.10;99.90;;;;;;5019986;28;19926;-68
2022/08/16 06:50:42;;;;;;;;;;;21.10;99.90;;;;;;5028039;28;19931;-67
2022/08/16 06:53:10;;;;;;;;;;;21.20;99.90;;;;;;5032541;28;19951;-68
2022/08/16 06:55:55;;;;;;;;;;;21.30;99.90;;;;;;5025213;28;19924;-68
2022/08/16 06:58:25;;;;;;;;;;;21.50;99.90;;;;;;5054237;28;20012;-69
2022/08/16 07:01:00;;;;;;;;;;;21.50;99.90;;;;;;5051793;28;19925;-68
2022/08/16 07:03:29;;;;;;;;;;;21.70;99.90;;;;;;5034479;28;19925;-69
2022/08/16 07:05:57;;;;;;;;;;;21.70;99.90;;;;;;5051130;28;19935;-69
2022/08/16 07:08:32;;;;;;;;;;;21.80;99.90;;;;;;5026897;28;19940;-69
2022/08/16 07:10:59;;;;;;;;;;;21.80;99.90;;;;;;5022805;28;19964;-69
2022/08/16 07:13:31;;;;;;;;;;;21.90;99.90;;;;;;5033148;28;19925;-68
2022/08/16 07:15:59;;;;;;;;;;;22.00;99.90;;;;;;5030752;28;19925;-68
2022/08/16 07:18:28;;;;;;;;;;;22.10;99.90;;;;;;5031275;28;19968;-69
2022/08/16 07:20:57;;;;;;;;;;;22.20;99.90;;;;;;5030166;28;20024;-68
2022/08/16 07:23:25;;;;;;;;;;;22.30;99.90;;;;;;5031330;28;19940;-68
2022/08/16 07:25:56;;;;;;;;;;;22.40;99.90;;;;;;5028926;28;19948;-68
2022/08/16 07:28:24;;;;;;;;;;;22.40;99.90;;;;;;5024632;28;19968;-68
2022/08/16 07:30:54;;;;;;;;;;;22.50;99.90;;;;;;5035533;28;19925;-68
2022/08/16 07:33:33;;;;;;;;;;;22.60;99.90;;;;;;5029371;28;20446;-68
2022/08/16 07:35:59;;;;;;;;;;;22.60;99.90;;;;;;5034586;28;20280;-68
2022/08/16 07:38:28;;;;;;;;;;;22.60;99.90;;;;;;5025950;28;19925;-68
2022/08/16 07:40:56;;;;;;;;;;;22.60;99.90;;;;;;5027742;28;19936;-68
2022/08/16 07:43:24;;;;;;;;;;;22.70;99.90;;;;;;5025943;28;19932;-68
2022/08/16 07:45:51;;;;;;;;;;;22.90;99.90;;;;;;5029361;28;19935;-68
2022/08/16 07:48:20;;;;;;;;;;;23.00;99.90;;;;;;5025889;28;20354;-68
2022/08/16 07:50:52;;;;;;;;;;;23.10;99.90;;;;;;5022808;28;19952;-68
2022/08/16 07:53:19;;;;;;;;;;;23.10;99.90;;;;;;5022946;28;19925;-68
2022/08/16 07:55:47;;;;;;;;;;;23.10;99.90;;;;;;5025465;28;19925;-68
2022/08/16 07:58:17;;;;;;;;;;;23.20;99.90;;;;;;5022904;28;20396;-68
2022/08/16 08:00:44;;;;;;;;;;;23.30;99.90;;;;;;5021021;28;19925;-68
2022/08/16 08:03:11;;;;;;;;;;;23.30;99.90;;;;;;5053481;28;19928;-68
2022/08/16 08:05:40;;;;;;;;;;;23.40;99.90;;;;;;5035837;28;19943;-68
2022/08/16 08:08:08;;;;;;;;;;;23.50;99.90;;;;;;5026080;28;20312;-68
2022/08/16 08:10:35;;;;;;;;;;;23.60;99.90;;;;;;5034803;28;19964;-68
2022/08/16 08:13:02;;;;;;;;;;;23.70;99.90;;;;;;5027655;28;19925;-68
2022/08/16 08:15:29;;;;;;;;;;;23.70;99.90;;;;;;5027928;28;20376;-68
2022/08/16 08:17:57;;;;;;;;;;;23.90;99.90;;;;;;5022576;28;20008;-68
2022/08/16 08:20:30;;;;;;;;;;;24.00;99.90;;;;;;5033722;28;19929;-68
2022/08/16 08:23:01;;;;;;;;;;;24.10;99.90;;;;;;5025559;28;20055;-68
2022/08/16 08:25:28;;;;;;;;;;;24.20;99.90;;;;;;5028804;28;20316;-68
2022/08/16 08:27:59;;;;;;;;;;;24.20;99.90;;;;;;5028482;28;19970;-68
2022/08/16 08:30:26;;;;;;;;;;;24.30;99.90;;;;;;5022755;28;19994;-67
2022/08/16 08:32:54;;;;;;;;;;;24.50;99.90;;;;;;5027290;28;19947;-68
2022/08/16 08:35:21;;;;;;;;;;;24.50;99.90;;;;;;5031879;28;19931;-68
2022/08/16 08:37:47;;;;;;;;;;;24.50;99.90;;;;;;5025836;28;20031;-68
2022/08/16 08:40:17;;;;;;;;;;;24.70;99.90;;;;;;5029854;28;19958;-68
2022/08/16 08:42:44;;;;;;;;;;;24.80;99.90;;;;;;5024973;28;19951;-68
2022/08/16 08:45:13;;;;;;;;;;;25.00;99.90;;;;;;5029374;28;19925;-68
2022/08/16 08:47:41;;;;;;;;;;;25.10;99.90;;;;;;5021634;28;19925;-68
2022/08/16 08:50:08;;;;;;;;;;;25.10;99.90;;;;;;5027679;28;19925;-68
2022/08/16 08:52:36;;;;;;;;;;;25.10;99.90;;;;;;5032083;28;19925;-67
2022/08/16 08:55:07;;;;;;;;;;;25.00;99.90;;;;;;5027577;28;19929;-67
2022/08/16 08:57:35;;;;;;;;;;;25.10;99.90;;;;;;5023534;28;19928;-68
2022/08/16 09:00:22;;;;;;;;;;;25.10;99.90;;;;;;5042873;28;19932;-68
2022/08/16 09:02:52;;;;;;;;;;;25.00;99.90;;;;;;5025638;28;20385;-68
2022/08/16 09:05:21;;;;;;;;;;;25.10;99.90;;;;;;5034024;28;19933;-68
2022/08/16 09:07:50;;;;;;;;;;;25.10;99.90;;;;;;5023853;28;19929;-69
2022/08/16 09:10:17;;;;;;;;;;;25.10;99.90;;;;;;5032615;28;20300;-68
2022/08/16 09:12:46;;;;;;;;;;;25.00;99.90;;;;;;5025807;28;19933;-68
2022/08/16 09:15:20;;;;;;;;;;;25.20;99.90;;;;;;5029279;28;20015;-68
2022/08/16 09:17:47;;;;;;;;;;;25.40;99.90;;;;;;5049667;28;20405;-68
2022/08/16 09:20:15;;;;;;;;;;;25.40;99.90;;;;;;5031376;28;19925;-68
2022/08/16 09:22:42;;;;;;;;;;;25.50;99.90;;;;;;5026811;28;19932;-68
2022/08/16 09:25:10;;;;;;;;;;;25.60;99.90;;;;;;5053422;28;19931;-68
2022/08/16 09:27:37;;;;;;;;;;;25.60;99.90;;;;;;5021298;28;19937;-69
2022/08/16 09:30:07;;;;;;;;;;;25.70;99.90;;;;;;5032930;28;19932;-69
2022/08/16 09:32:34;;;;;;;;;;;25.80;99.90;;;;;;5029487;28;19925;-69
2022/08/16 09:35:01;;;;;;;;;;;25.80;99.90;;;;;;5033391;28;19970;-68
2022/08/16 09:37:29;;;;;;;;;;;26.00;99.90;;;;;;5029954;28;19928;-69
2022/08/16 09:39:56;;;;;;;;;;;26.00;99.90;;;;;;5031606;28;20400;-69
2022/08/16 09:42:22;;;;;;;;;;;26.10;99.90;;;;;;5025752;28;20343;-69
2022/08/16 09:44:49;;;;;;;;;;;26.20;99.90;;;;;;5029731;28;19924;-69
2022/08/16 09:47:18;;;;;;;;;;;26.20;99.90;;;;;;5023458;28;19929;-69
2022/08/16 09:49:44;;;;;;;;;;;26.30;99.90;;;;;;5054222;28;19931;-69
2022/08/16 09:52:11;;;;;;;;;;;26.30;99.90;;;;;;5054415;28;19925;-69
2022/08/16 09:54:39;;;;;;;;;;;26.30;99.90;;;;;;5023874;28;19933;-69
2022/08/16 09:57:06;;;;;;;;;;;26.50;99.90;;;;;;5020773;28;19961;-69
2022/08/16 09:59:33;;;;;;;;;;;26.50;99.90;;;;;;5031729;28;19933;-69
2022/08/16 10:02:00;;;;;;;;;;;26.80;99.90;;;;;;5058771;28;20351;-69
2022/08/16 10:04:28;;;;;;;;;;;27.00;99.90;;;;;;5030398;28;19925;-69
2022/08/16 10:06:57;;;;;;;;;;;27.20;99.90;;;;;;5032004;28;20400;-69
2022/08/16 10:09:23;;;;;;;;;;;27.30;99.90;;;;;;5026924;28;20018;-69
2022/08/16 10:14:35;;;;;;;;;;;27.40;99.90;;;;;;5031016;28;19928;-70
2022/08/16 10:17:03;;;;;;;;;;;27.50;99.90;;;;;;5030357;28;19925;-69
2022/08/16 10:19:32;;;;;;;;;;;27.70;99.90;;;;;;5031427;28;19940;-70
2022/08/16 10:21:59;;;;;;;;;;;27.80;99.90;;;;;;5043234;28;19929;-70
2022/08/16 10:24:26;;;;;;;;;;;27.90;99.90;;;;;;5031827;28;20603;-70
2022/08/16 10:26:53;;;;;;;;;;;28.00;99.90;;;;;;5025648;28;19925;-70
2022/08/16 10:29:20;;;;;;;;;;;28.30;99.90;;;;;;5026035;28;19925;-70
2022/08/16 10:31:47;;;;;;;;;;;28.60;99.90;;;;;;5026776;28;20293;-69
2022/08/16 10:34:14;;;;;;;;;;;28.60;99.90;;;;;;5022626;28;20312;-70
2022/08/16 10:36:42;;;;;;;;;;;28.60;99.90;;;;;;5027264;28;20423;-69
2022/08/16 10:39:09;;;;;;;;;;;28.40;99.90;;;;;;5029491;28;19925;-70
2022/08/16 10:41:36;;;;;;;;;;;28.40;99.90;;;;;;5027015;28;19932;-69
2022/08/16 10:44:03;;;;;;;;;;;28.50;99.90;;;;;;5039538;28;19925;-69
2022/08/16 10:46:30;;;;;;;;;;;28.80;99.90;;;;;;5040663;28;20334;-70
2022/08/16 10:48:56;;;;;;;;;;;29.10;99.90;;;;;;5031949;28;19932;-70
2022/08/16 10:51:23;;;;;;;;;;;29.20;99.90;;;;;;5027341;28;19932;-70
2022/08/16 10:53:52;;;;;;;;;;;29.40;99.90;;;;;;5031013;28;19925;-70
2022/08/16 10:56:19;;;;;;;;;;;29.80;99.90;;;;;;5026538;28;19932;-70
2022/08/16 10:58:46;;;;;;;;;;;29.90;99.90;;;;;;5024742;28;19951;-70
2022/08/16 11:01:14;;;;;;;;;;;29.80;99.90;;;;;;5031487;28;20450;-70
2022/08/16 11:03:41;;;;;;;;;;;29.80;99.90;;;;;;5050352;28;19925;-70
2022/08/16 11:06:08;;;;;;;;;;;30.00;99.90;;;;;;5031927;28;19932;-71
2022/08/16 11:08:35;;;;;;;;;;;30.40;99.90;;;;;;5054091;28;19929;-71
2022/08/16 11:11:05;;;;;;;;;;;30.40;99.90;;;;;;5026002;28;20415;-70
2022/08/16 11:13:32;;;;;;;;;;;30.60;99.90;;;;;;5057691;28;20022;-70
2022/08/16 11:15:59;;;;;;;;;;;30.90;99.90;;;;;;5052327;28;19925;-70
2022/08/16 11:18:28;;;;;;;;;;;31.20;99.90;;;;;;5059448;23;20320;-68
2022/08/16 11:20:55;;;;;;;;;;;31.60;99.90;;;;;;5041195;28;19948;-68
2022/08/16 11:23:22;;;;;;;;;;;31.50;99.90;;;;;;5047081;28;19924;-70
2022/08/16 11:25:49;;;;;;;;;;;30.90;99.90;;;;;;5035058;28;19972;-69
2022/08/16 11:28:17;;;;;;;;;;;31.10;99.90;;;;;;5045820;28;19959;-69
2022/08/16 11:30:43;;;;;;;;;;;31.10;99.90;;;;;;5046994;28;19978;-69
2022/08/16 11:33:10;;;;;;;;;;;31.00;99.90;;;;;;5039313;28;20008;-69
2022/08/16 11:35:38;;;;;;;;;;;30.80;99.90;;;;;;5033742;28;20443;-69
2022/08/16 11:38:06;;;;;;;;;;;32.60;99.90;;;;;;5035826;28;19925;-69
2022/08/16 11:40:37;;;;;;;;;;;34.70;99.90;;;;;;5037625;28;19928;-69
2022/08/16 11:43:05;;;;;;;;;;;35.20;99.90;;;;;;5046160;28;19935;-69
2022/08/16 11:45:33;;;;;;;;;;;34.90;99.90;;;;;;5040428;28;19940;-69
2022/08/16 11:48:00;;;;;;;;;;;33.90;99.90;;;;;;5041318;28;20431;-70
2022/08/16 11:50:27;;;;;;;;;;;33.40;99.90;;;;;;5035827;28;19932;-69
2022/08/16 11:52:54;;;;;;;;;;;32.50;99.90;;;;;;5036715;28;19932;-70
2022/08/16 11:55:21;;;;;;;;;;;31.70;99.90;;;;;;5040812;28;19924;-70
2022/08/16 11:57:48;;;;;;;;;;;31.10;99.90;;;;;;5030424;28;19929;-70
2022/08/16 12:00:15;;;;;;;;;;;30.60;99.90;;;;;;5040884;28;19925;-68
2022/08/16 12:02:44;;;;;;;;;;;30.20;99.90;;;;;;5031171;28;19925;-70
2022/08/16 12:05:12;;;;;;;;;;;30.20;99.90;;;;;;5035525;28;19932;-69
2022/08/16 12:07:39;;;;;;;;;;;30.20;99.90;;;;;;5033193;28;19932;-69
2022/08/16 12:10:08;;;;;;;;;;;30.50;99.90;;;;;;5040303;28;19925;-71
2022/08/16 12:12:34;;;;;;;;;;;30.80;99.90;;;;;;5036844;28;19937;-70
2022/08/16 12:15:01;;;;;;;;;;;31.70;99.90;;;;;;5036446;28;20423;-70
2022/08/16 12:17:29;;;;;;;;;;;32.80;99.90;;;;;;5041041;28;19929;-71
2022/08/16 12:19:57;;;;;;;;;;;33.30;99.90;;;;;;5033341;28;19925;-71
2022/08/16 12:22:24;;;;;;;;;;;34.20;99.90;;;;;;5039497;28;19933;-70
2022/08/16 12:24:52;;;;;;;;;;;35.40;99.90;;;;;;5033711;28;19952;-70
2022/08/16 12:27:19;;;;;;;;;;;36.10;99.50;;;;;;5040191;28;19925;-70
2022/08/16 12:29:46;;;;;;;;;;;37.10;99.60;;;;;;5040752;28;20400;-71
2022/08/16 12:32:12;;;;;;;;;;;38.70;98.40;;;;;;5034855;28;19932;-71
2022/08/16 12:34:41;;;;;;;;;;;38.90;96.80;;;;;;5031626;28;19929;-71
2022/08/16 12:37:09;;;;;;;;;;;37.00;96.70;;;;;;5034097;28;19925;-72
2022/08/16 12:39:36;;;;;;;;;;;36.10;97.30;;;;;;5034870;28;20328;-72
2022/08/16 12:42:03;;;;;;;;;;;36.90;97.40;;;;;;5040598;28;19925;-71
2022/08/16 12:44:30;;;;;;;;;;;37.20;96.20;;;;;;5031048;28;19947;-71
2022/08/16 12:49:41;;;;;;;;;;;38.50;94.90;;;;;;5031881;28;19921;-70
2022/08/16 12:52:10;;;;;;;;;;;39.60;94.70;;;;;;5042218;28;19951;-70
2022/08/16 12:54:38;;;;;;;;;;;39.10;93.80;;;;;;5038111;28;20273;-71
2022/08/16 12:57:05;;;;;;;;;;;37.70;93.90;;;;;;5037889;28;20293;-71
2022/08/16 12:59:32;;;;;;;;;;;36.40;94.30;;;;;;5039444;28;19928;-71
2022/08/16 13:01:59;;;;;;;;;;;36.60;94.60;;;;;;5034461;28;20012;-71
2022/08/16 13:04:27;;;;;;;;;;;37.90;94.30;;;;;;5040043;28;19924;-71
2022/08/16 13:06:55;;;;;;;;;;;38.90;93.80;;;;;;5033114;28;19957;-70
2022/08/16 13:09:23;;;;;;;;;;;39.00;93.60;;;;;;5043867;28;19925;-71
2022/08/16 13:11:58;;;;;;;;;;;39.50;93.20;;;;;;5032234;28;19925;-71
2022/08/16 13:14:26;;;;;;;;;;;40.20;92.90;;;;;;5029652;28;19932;-71
2022/08/16 13:16:53;;;;;;;;;;;40.80;92.50;;;;;;5038596;28;19965;-70
2022/08/16 13:19:19;;;;;;;;;;;40.60;92.00;;;;;;5036446;28;19929;-67
2022/08/16 13:21:46;;;;;;;;;;;39.70;92.00;;;;;;5033597;28;19925;-70
2022/08/16 13:24:13;;;;;;;;;;;38.60;92.20;;;;;;5039368;28;19929;-69
2022/08/16 13:26:41;;;;;;;;;;;37.60;92.30;;;;;;5037632;28;19925;-70
2022/08/16 13:29:08;;;;;;;;;;;36.50;92.70;;;;;;5034547;28;19925;-70
2022/08/16 13:31:35;;;;;;;;;;;35.30;93.00;;;;;;5033478;28;19936;-70
2022/08/16 13:34:02;;;;;;;;;;;34.40;93.80;;;;;;5037140;28;19925;-70
2022/08/16 13:36:29;;;;;;;;;;;34.20;94.00;;;;;;5039405;28;20420;-70
2022/08/16 13:38:56;;;;;;;;;;;34.00;94.30;;;;;;5034279;28;19925;-70
2022/08/16 13:41:23;;;;;;;;;;;33.70;94.90;;;;;;5037377;28;19976;-68
2022/08/16 13:43:52;;;;;;;;;;;33.40;94.70;;;;;;5036374;28;20377;-70
2022/08/16 13:46:18;;;;;;;;;;;34.10;94.30;;;;;;5034706;28;19933;-69
2022/08/16 13:48:45;;;;;;;;;;;34.60;94.10;;;;;;5041870;28;19929;-69
2022/08/16 13:51:13;;;;;;;;;;;35.70;93.80;;;;;;5041635;28;19948;-70
2022/08/16 13:53:40;;;;;;;;;;;35.90;92.90;;;;;;5032058;28;19929;-70
2022/08/16 13:56:07;;;;;;;;;;;36.30;93.00;;;;;;5043804;28;19924;-70
2022/08/16 13:58:34;;;;;;;;;;;36.60;92.70;;;;;;5038056;28;19925;-70
2022/08/16 14:01:02;;;;;;;;;;;36.80;92.90;;;;;;5030780;28;20017;-69
2022/08/16 14:03:29;;;;;;;;;;;36.00;92.80;;;;;;5033910;28;19979;-70
2022/08/16 14:05:56;;;;;;;;;;;35.20;93.20;;;;;;5031669;28;19929;-70
2022/08/16 14:08:22;;;;;;;;;;;34.30;93.50;;;;;;5038648;28;19925;-68
2022/08/16 14:10:50;;;;;;;;;;;34.00;93.90;;;;;;5041635;28;20024;-69
2022/08/16 14:13:17;;;;;;;;;;;33.80;94.30;;;;;;5034058;28;19988;-67
2022/08/16 14:15:44;;;;;;;;;;;33.90;94.40;;;;;;5038490;28;19925;-69
2022/08/16 14:18:12;;;;;;;;;;;34.20;94.40;;;;;;5031023;28;19925;-70
2022/08/16 14:20:39;;;;;;;;;;;35.10;94.20;;;;;;5039883;28;19925;-69
2022/08/16 14:23:06;;;;;;;;;;;35.80;93.20;;;;;;5032038;28;19937;-69
2022/08/16 14:25:33;;;;;;;;;;;35.50;93.20;;;;;;5038280;28;19925;-69
2022/08/16 14:28:00;;;;;;;;;;;35.80;93.50;;;;;;5037259;28;19934;-69